createdAt,value
2023-03-22T00:00:11.986Z,4.47
2023-03-22T00:02:40.679Z,4.32
2023-03-22T00:05:09.030Z,4.42
2023-03-22T00:07:36.270Z,3.89
2023-03-22T00:10:04.347Z,4.12
2023-03-22T00:12:31.495Z,3.93
2023-03-22T00:14:58.712Z,3.97
2023-03-22T00:17:25.890Z,3.98
2023-03-22T00:19:54.792Z,3.77
2023-03-22T00:22:22.155Z,3.77
2023-03-22T00:24:49.349Z,3.52
2023-03-22T00:27:16.592Z,3.25
2023-03-22T00:29:43.651Z,3.67
2023-03-22T00:32:10.794Z,3.68
2023-03-22T00:34:38.001Z,3.42
2023-03-22T00:37:06.800Z,3.34
2023-03-22T00:39:33.833Z,3.44
2023-03-22T00:42:01.193Z,3.39
2023-03-22T00:45:05.434Z,3.40
2023-03-22T00:47:32.997Z,4.41
2023-03-22T00:50:00.189Z,4.47
2023-03-22T00:52:29.080Z,4.11
2023-03-22T00:54:56.475Z,4.00
2023-03-22T00:57:24.135Z,3.80
2023-03-22T00:59:51.455Z,4.27
2023-03-22T01:02:18.618Z,3.90
2023-03-22T01:04:45.713Z,4.01
2023-03-22T01:07:14.193Z,4.14
2023-03-22T01:09:42.827Z,4.33
2023-03-22T01:12:09.951Z,4.26
2023-03-22T01:14:37.311Z,4.27
2023-03-22T01:17:05.091Z,4.28
2023-03-22T01:19:32.393Z,4.00
2023-03-22T01:21:59.829Z,3.57
2023-03-22T01:24:27.177Z,2.54
2023-03-22T01:26:55.868Z,3.04
2023-03-22T01:29:23.263Z,2.85
2023-03-22T01:31:50.653Z,3.24
2023-03-22T01:34:17.866Z,3.13
2023-03-22T01:36:45.329Z,2.68
2023-03-22T01:39:12.433Z,2.70
2023-03-22T01:41:39.550Z,2.77
2023-03-22T01:44:19.531Z,2.67
2023-03-22T01:46:48.749Z,2.60
2023-03-22T01:49:21.590Z,2.79
2023-03-22T01:51:53.494Z,2.64
2023-03-22T01:54:30.632Z,2.78
2023-03-22T01:56:58.216Z,2.68
2023-03-22T01:59:28.172Z,2.59
2023-03-22T02:01:55.654Z,2.61
2023-03-22T02:04:27.357Z,2.61
2023-03-22T02:06:55.841Z,2.69
2023-03-22T02:09:22.974Z,2.61
2023-03-22T02:12:01.792Z,2.56
2023-03-22T02:14:50.574Z,2.39
2023-03-22T02:17:34.798Z,2.72
2023-03-22T02:20:42.593Z,2.58
2023-03-22T02:23:47.534Z,2.56
2023-03-22T02:26:56.293Z,2.28
2023-03-22T02:29:36.372Z,2.55
2023-03-22T02:32:41.348Z,2.45
2023-03-22T02:35:37.793Z,2.38
2023-03-22T02:38:28.883Z,2.33
2023-03-22T02:41:10.877Z,2.51
2023-03-22T02:43:49.276Z,2.35
2023-03-22T02:46:25.197Z,2.57
2023-03-22T02:49:04.154Z,2.28
2023-03-22T02:51:39.892Z,2.33
2023-03-22T02:54:13.672Z,2.43
2023-03-22T02:56:48.234Z,2.20
2023-03-22T02:59:20.030Z,2.48
2023-03-22T03:01:52.138Z,2.48
2023-03-22T03:04:25.091Z,2.40
2023-03-22T03:06:59.211Z,2.32
2023-03-22T03:09:27.313Z,2.32
2023-03-22T03:11:56.011Z,2.35
2023-03-22T03:14:25.936Z,2.65
2023-03-22T03:17:11.032Z,2.21
2023-03-22T03:19:48.797Z,2.16
2023-03-22T03:22:35.850Z,2.34
2023-03-22T03:25:13.531Z,2.29
2023-03-22T03:27:50.453Z,2.23
2023-03-22T03:30:26.228Z,2.42
2023-03-22T03:33:00.769Z,2.21
2023-03-22T03:35:32.390Z,2.51
2023-03-22T03:38:08.169Z,2.31
2023-03-22T03:40:41.365Z,2.29
2023-03-22T03:43:12.031Z,2.12
2023-03-22T03:45:40.281Z,2.25
2023-03-22T03:48:13.882Z,2.33
2023-03-22T03:50:42.491Z,2.15
2023-03-22T03:53:09.650Z,2.29
2023-03-22T03:55:37.011Z,2.45
2023-03-22T03:58:04.343Z,2.38
2023-03-22T04:00:32.930Z,2.10
2023-03-22T04:03:00.086Z,2.08
2023-03-22T04:05:27.511Z,2.23
2023-03-22T04:07:54.674Z,2.28
2023-03-22T04:10:21.796Z,2.30
2023-03-22T04:12:48.954Z,2.44
2023-03-22T04:15:16.773Z,2.18
2023-03-22T04:17:45.332Z,2.21
2023-03-22T04:20:13.520Z,2.28
2023-03-22T04:22:41.814Z,2.39
2023-03-22T04:25:12.496Z,2.29
2023-03-22T04:27:41.833Z,2.08
2023-03-22T04:30:12.153Z,2.47
2023-03-22T04:32:39.636Z,2.47
2023-03-22T04:35:08.893Z,2.55
2023-03-22T04:37:36.017Z,2.13
2023-03-22T04:40:03.612Z,2.05
2023-03-22T04:42:30.693Z,2.22
2023-03-22T04:44:57.853Z,2.01
2023-03-22T04:47:25.150Z,2.20
2023-03-22T04:49:52.330Z,2.12
2023-03-22T04:52:20.853Z,2.19
2023-03-22T04:54:48.113Z,2.19
2023-03-22T04:57:15.314Z,2.32
2023-03-22T04:59:42.459Z,2.21
2023-03-22T05:02:09.691Z,2.32
2023-03-22T05:04:36.781Z,2.10
2023-03-22T05:07:03.990Z,2.38
2023-03-22T05:09:32.549Z,2.10
2023-03-22T05:11:59.650Z,2.48
2023-03-22T05:14:26.957Z,2.20
2023-03-22T05:16:54.129Z,2.35
2023-03-22T05:19:21.321Z,2.45
2023-03-22T05:21:48.970Z,2.55
2023-03-22T05:24:16.248Z,2.50
2023-03-22T05:26:44.815Z,2.37
2023-03-22T05:29:12.109Z,2.68
2023-03-22T05:31:39.507Z,2.35
2023-03-22T05:34:06.665Z,2.47
2023-03-22T05:36:33.932Z,2.39
2023-03-22T05:39:01.193Z,2.56
2023-03-22T05:41:28.274Z,2.83
2023-03-22T05:43:56.834Z,2.47
2023-03-22T05:46:23.993Z,2.44
2023-03-22T05:48:51.116Z,2.87
2023-03-22T05:51:18.336Z,2.59
2023-03-22T05:53:46.022Z,2.86
2023-03-22T05:56:13.476Z,2.81
2023-03-22T05:58:41.333Z,2.57
2023-03-22T06:01:12.026Z,2.61
2023-03-22T06:03:39.917Z,2.98
2023-03-22T06:06:08.799Z,2.96
2023-03-22T06:08:35.997Z,2.70
2023-03-22T06:11:03.723Z,2.69
2023-03-22T06:13:31.030Z,2.71
2023-03-22T06:15:59.780Z,2.91
2023-03-22T06:18:28.559Z,3.08
2023-03-22T06:20:55.739Z,2.97
2023-03-22T06:23:23.017Z,2.96
2023-03-22T06:25:50.340Z,3.00
2023-03-22T06:28:17.563Z,3.05
2023-03-22T06:30:44.904Z,3.11
2023-03-22T06:33:12.035Z,3.21
2023-03-22T06:35:40.900Z,2.96
2023-03-22T06:38:08.118Z,3.02
2023-03-22T06:40:35.271Z,3.09
2023-03-22T06:43:05.627Z,2.79
2023-03-22T06:45:34.172Z,3.40
2023-03-22T06:48:01.518Z,3.10
2023-03-22T06:50:29.405Z,3.07
2023-03-22T06:52:57.949Z,3.39
2023-03-22T06:55:25.447Z,3.22
2023-03-22T06:57:52.648Z,3.37
2023-03-22T07:00:20.280Z,3.46
2023-03-22T07:02:48.015Z,3.29
2023-03-22T07:05:15.295Z,3.18
2023-03-22T07:07:42.551Z,3.06
2023-03-22T07:10:11.430Z,3.36
2023-03-22T07:12:38.969Z,3.42
2023-03-22T07:15:07.751Z,3.28
2023-03-22T07:17:34.892Z,3.34
2023-03-22T07:20:02.109Z,3.23
2023-03-22T07:22:29.330Z,3.24
2023-03-22T07:24:59.340Z,3.00
2023-03-22T07:27:29.240Z,2.54
2023-03-22T07:29:56.408Z,2.74
2023-03-22T07:32:23.624Z,2.58
2023-03-22T07:34:50.973Z,2.39
2023-03-22T07:37:18.150Z,2.31
2023-03-22T07:39:45.260Z,2.27
2023-03-22T07:42:12.492Z,2.37
2023-03-22T07:44:41.193Z,2.17
2023-03-22T07:47:08.395Z,2.21
2023-03-22T07:49:35.620Z,2.13
2023-03-22T07:52:02.948Z,2.15
2023-03-22T07:54:34.154Z,2.14
2023-03-22T07:57:02.444Z,2.00
2023-03-22T07:59:29.641Z,2.26
2023-03-22T08:01:58.292Z,2.07
2023-03-22T08:04:25.579Z,2.42
2023-03-22T08:06:52.834Z,2.23
2023-03-22T08:09:20.062Z,2.76
2023-03-22T08:11:47.242Z,3.22
2023-03-22T08:14:15.184Z,2.86
2023-03-22T08:16:43.383Z,2.75
2023-03-22T08:19:12.060Z,3.12
2023-03-22T08:21:39.355Z,2.75
2023-03-22T08:24:06.776Z,2.80
2023-03-22T08:26:33.894Z,3.06
2023-03-22T08:29:00.959Z,3.41
2023-03-22T08:31:28.091Z,3.59
2023-03-22T08:33:55.346Z,3.26
2023-03-22T08:36:24.102Z,2.83
2023-03-22T08:38:51.729Z,3.05
2023-03-22T08:41:18.967Z,2.81
2023-03-22T08:43:46.129Z,2.73
2023-03-22T08:46:13.346Z,2.98
2023-03-22T08:48:40.597Z,3.06
2023-03-22T08:51:07.900Z,2.85
2023-03-22T08:53:36.539Z,2.93
2023-03-22T08:56:04.321Z,2.83
2023-03-22T08:58:31.610Z,3.34
2023-03-22T09:01:27.602Z,3.01
2023-03-22T09:03:54.776Z,3.15
2023-03-22T09:06:21.895Z,2.72
2023-03-22T09:08:50.558Z,2.64
2023-03-22T09:11:18.576Z,2.86
2023-03-22T09:13:46.737Z,2.60
2023-03-22T09:16:14.014Z,2.64
2023-03-22T09:18:41.215Z,2.53
2023-03-22T09:21:10.208Z,2.42
2023-03-22T09:23:38.744Z,2.73
2023-03-22T09:26:09.532Z,2.54
2023-03-22T09:28:37.071Z,2.61
2023-03-22T09:31:07.833Z,2.96
2023-03-22T09:33:36.890Z,3.14
2023-03-22T09:36:04.846Z,2.43
2023-03-22T09:38:32.032Z,2.11
2023-03-22T09:41:05.148Z,2.81
2023-03-22T09:43:38.169Z,2.84
2023-03-22T09:46:13.317Z,2.55
2023-03-22T09:48:44.894Z,2.58
2023-03-22T09:51:28.853Z,2.34
2023-03-22T09:53:56.331Z,2.50
2023-03-22T09:56:28.132Z,2.62
2023-03-22T09:59:06.486Z,2.52
2023-03-22T10:01:43.919Z,2.30
2023-03-22T10:04:41.872Z,2.11
2023-03-22T10:07:24.601Z,1.96
2023-03-22T10:10:06.271Z,1.97
2023-03-22T10:12:43.000Z,2.39
2023-03-22T10:15:16.380Z,2.21
2023-03-22T10:17:49.853Z,2.51
2023-03-22T10:20:35.050Z,2.36
2023-03-22T10:23:06.471Z,2.38
2023-03-22T10:25:38.374Z,2.25
2023-03-22T10:28:16.356Z,2.12
2023-03-22T10:30:50.816Z,1.98
2023-03-22T10:33:30.393Z,1.94
2023-03-22T10:35:58.317Z,1.87
2023-03-22T10:38:29.491Z,1.70
2023-03-22T10:41:00.457Z,1.70
2023-03-22T10:43:34.170Z,1.87
2023-03-22T10:46:08.087Z,1.69
2023-03-22T10:48:42.251Z,1.30
2023-03-22T10:51:23.463Z,1.48
2023-03-22T10:53:55.700Z,1.79
2023-03-22T10:56:22.833Z,2.03
2023-03-22T10:58:56.298Z,2.16
2023-03-22T11:01:30.696Z,2.21
2023-03-22T11:04:01.010Z,2.18
2023-03-22T11:06:30.639Z,2.31
2023-03-22T11:09:00.817Z,1.97
2023-03-22T11:11:30.641Z,1.69
2023-03-22T11:14:05.346Z,1.67
2023-03-22T11:16:44.977Z,1.88
2023-03-22T11:19:20.479Z,2.28
2023-03-22T11:21:47.891Z,1.85
2023-03-22T11:24:15.452Z,1.67
2023-03-22T11:26:42.514Z,1.47
2023-03-22T11:29:17.999Z,1.79
2023-03-22T11:31:56.484Z,2.88
2023-03-22T11:34:27.053Z,2.12
2023-03-22T11:36:55.335Z,2.10
2023-03-22T11:39:26.763Z,2.05
2023-03-22T11:41:57.606Z,2.09
2023-03-22T11:44:29.295Z,2.19
2023-03-22T11:47:02.898Z,2.28
2023-03-22T11:49:40.710Z,1.78
2023-03-22T11:52:11.954Z,2.03
2023-03-22T11:54:42.116Z,2.18
2023-03-22T11:57:16.663Z,2.14
2023-03-22T11:59:54.382Z,2.24
2023-03-22T12:02:28.404Z,2.43
2023-03-22T12:05:06.873Z,2.30
2023-03-22T12:07:38.833Z,2.47
2023-03-22T12:10:14.745Z,2.92
2023-03-22T12:12:51.563Z,2.52
2023-03-22T12:15:23.814Z,2.14
2023-03-22T12:17:59.576Z,2.17
2023-03-22T12:20:40.638Z,1.92
2023-03-22T12:23:14.855Z,1.79
2023-03-22T12:25:48.418Z,1.83
2023-03-22T12:28:21.142Z,1.76
2023-03-22T12:30:54.092Z,2.09
2023-03-22T12:33:27.768Z,1.90
2023-03-22T12:36:00.533Z,1.74
2023-03-22T12:38:38.236Z,1.32
2023-03-22T12:41:10.990Z,1.60
2023-03-22T12:43:50.898Z,1.68
2023-03-22T12:46:22.741Z,1.69
2023-03-22T12:48:57.925Z,1.80
2023-03-22T12:51:25.219Z,1.88
2023-03-22T12:53:55.157Z,1.42
2023-03-22T12:56:26.408Z,1.46
2023-03-22T12:58:59.335Z,1.42
2023-03-22T13:01:35.238Z,1.54
2023-03-22T13:04:29.704Z,1.64
2023-03-22T13:07:08.361Z,2.10
2023-03-22T13:09:39.697Z,1.90
2023-03-22T13:12:30.011Z,2.01
2023-03-22T13:15:00.847Z,1.61
2023-03-22T13:17:48.991Z,1.43
2023-03-22T13:20:27.380Z,1.88
2023-03-22T13:23:24.817Z,1.66
2023-03-22T13:26:05.176Z,2.01
2023-03-22T13:28:33.937Z,1.93
2023-03-22T13:31:01.293Z,1.99
2023-03-22T13:33:31.964Z,1.84
2023-03-22T13:36:07.489Z,1.72
2023-03-22T13:38:38.766Z,1.76
2023-03-22T13:41:10.046Z,1.82
2023-03-22T13:43:47.969Z,1.94
2023-03-22T13:46:46.800Z,2.15
2023-03-22T13:49:31.767Z,2.18
2023-03-22T13:52:06.951Z,2.28
2023-03-22T13:54:41.423Z,2.04
2023-03-22T13:57:20.715Z,1.92
2023-03-22T14:00:11.185Z,2.04
2023-03-22T14:02:44.328Z,2.07
2023-03-22T14:05:17.676Z,2.18
2023-03-22T14:07:52.254Z,2.28
2023-03-22T14:10:24.961Z,2.05
2023-03-22T14:12:58.286Z,1.96
2023-03-22T14:15:29.005Z,1.95
2023-03-22T14:18:02.524Z,2.02
2023-03-22T14:20:35.284Z,1.95
